Time,TemperatureF,DewpointF,PressureIn,WindDirection,WindDirectionDegrees,WindSpeedMPH,WindSpeedGustMPH,Humidity,HourlyPrecipIn,Conditions,Clouds,dailyrainin,SoftwareType,DateUTC
2013-12-04 00:04:00,35.5,31.1,29.94,North,-999,-999.0,-999.0,84,0.04,,,0.00,WSDL version 443,2013-12-04 05:04:00,
2013-12-04 00:09:00,35.3,31.1,29.97,North,-999,-999.0,-999.0,84,0.04,,,0.00,WSDL version 443,2013-12-04 05:09:00,
2013-12-04 00:14:00,35.1,30.9,29.97,North,-999,-999.0,-999.0,84,0.04,,,0.00,WSDL version 443,2013-12-04 05:14:00,
2013-12-04 00:19:00,34.9,30.8,29.97,North,-999,-999.0,-999.0,85,0.04,,,0.00,WSDL version 443,2013-12-04 05:19:00,
2013-12-04 00:24:00,34.8,30.9,29.94,North,-999,-999.0,-999.0,86,0.04,,,0.00,WSDL version 443,2013-12-04 05:24:00,
2013-12-04 00:29:00,34.7,30.8,29.94,North,-999,-999.0,-999.0,86,0.04,,,0.00,WSDL version 443,2013-12-04 05:29:00,
2013-12-04 00:34:00,34.7,30.8,29.94,North,-999,-999.0,-999.0,86,0.04,,,0.00,WSDL version 443,2013-12-04 05:34:00,
2013-12-04 00:39:00,34.7,31.0,29.94,North,-999,-999.0,-999.0,86,0.04,,,0.00,WSDL version 443,2013-12-04 05:39:00,
2013-12-04 00:44:00,34.7,31.2,29.94,North,-999,-999.0,-999.0,87,0.04,,,0.00,WSDL version 443,2013-12-04 05:44:00,
2013-12-04 00:49:00,34.7,31.5,29.94,North,-999,-999.0,-999.0,88,0.04,,,0.00,WSDL version 443,2013-12-04 05:49:00,
2013-12-04 00:54:00,34.7,31.6,29.91,North,-999,-999.0,-999.0,88,0.08,,,0.04,WSDL version 443,2013-12-04 05:54:00,
2013-12-04 00:59:00,34.9,31.9,29.91,North,-999,-999.0,-999.0,89,0.04,,,0.04,WSDL version 443,2013-12-04 05:59:00,
2013-12-04 01:04:00,34.9,31.9,29.91,North,-999,-999.0,-999.0,89,0.04,,,0.04,WSDL version 443,2013-12-04 06:04:00,
2013-12-04 01:09:00,34.9,32.0,29.91,North,-999,-999.0,-999.0,89,0.04,,,0.04,WSDL version 443,2013-12-04 06:09:00,
2013-12-04 01:14:00,35.1,32.4,29.91,North,-999,-999.0,-999.0,90,0.04,,,0.04,WSDL version 443,2013-12-04 06:14:00,
2013-12-04 01:19:00,35.2,32.6,29.91,North,-999,-999.0,-999.0,90,0.04,,,0.04,WSDL version 443,2013-12-04 06:19:00,
2013-12-04 01:24:00,35.4,32.8,29.91,North,-999,-999.0,-999.0,90,0.04,,,0.04,WSDL version 443,2013-12-04 06:24:00,
2013-12-04 01:29:00,35.4,33.0,29.91,North,-999,-999.0,-999.0,91,0.04,,,0.04,WSDL version 443,2013-12-04 06:29:00,
2013-12-04 01:34:00,35.4,33.1,29.91,North,-999,-999.0,-999.0,91,0.04,,,0.04,WSDL version 443,2013-12-04 06:34:00,
2013-12-04 01:39:00,35.6,33.2,29.88,North,-999,-999.0,-999.0,91,0.04,,,0.04,WSDL version 443,2013-12-04 06:39:00,
2013-12-04 01:44:00,35.6,33.4,29.88,North,-999,-999.0,-999.0,92,0.04,,,0.04,WSDL version 443,2013-12-04 06:44:00,
2013-12-04 01:49:00,35.8,33.7,29.88,North,-999,-999.0,-999.0,92,0.04,,,0.04,WSDL version 443,2013-12-04 06:49:00,
2013-12-04 01:54:00,35.8,33.9,29.94,North,-999,-999.0,-999.0,93,0.00,,,0.04,WSDL version 443,2013-12-04 06:54:00,
2013-12-04 01:59:00,35.9,34.2,29.94,North,-999,-999.0,-999.0,94,0.00,,,0.04,WSDL version 443,2013-12-04 06:59:00,
2013-12-04 02:04:00,36.2,34.8,29.94,North,-999,-999.0,-999.0,95,0.00,,,0.04,WSDL version 443,2013-12-04 07:04:00,
2013-12-04 02:09:00,36.3,35.2,29.91,North,-999,-999.0,-999.0,96,0.00,,,0.04,WSDL version 443,2013-12-04 07:09:00,
2013-12-04 02:14:00,36.3,35.4,29.91,North,-999,-999.0,-999.0,96,0.00,,,0.04,WSDL version 443,2013-12-04 07:14:00,
2013-12-04 02:19:00,36.4,35.5,29.91,North,-999,-999.0,-999.0,97,0.00,,,0.04,WSDL version 443,2013-12-04 07:19:00,
2013-12-04 02:24:00,36.5,35.8,29.88,North,-999,-999.0,-999.0,97,0.00,,,0.04,WSDL version 443,2013-12-04 07:24:00,
2013-12-04 02:29:00,36.7,36.1,29.88,North,-999,-999.0,-999.0,98,0.00,,,0.04,WSDL version 443,2013-12-04 07:29:00,
2013-12-04 02:34:00,36.7,36.1,29.88,North,-999,-999.0,-999.0,98,0.00,,,0.04,WSDL version 443,2013-12-04 07:34:00,
2013-12-04 02:39:00,36.8,36.4,29.91,North,-999,-999.0,-999.0,99,0.00,,,0.04,WSDL version 443,2013-12-04 07:39:00,
2013-12-04 02:44:00,36.9,36.6,29.91,North,-999,-999.0,-999.0,99,0.00,,,0.04,WSDL version 443,2013-12-04 07:44:00,
2013-12-04 02:49:00,36.9,36.6,29.91,North,-999,-999.0,-999.0,99,0.00,,,0.04,WSDL version 443,2013-12-04 07:49:00,
2013-12-04 02:54:00,36.9,36.6,29.94,North,-999,-999.0,-999.0,99,0.00,,,0.04,WSDL version 443,2013-12-04 07:54:00,
2013-12-04 02:59:00,37.0,36.7,29.94,North,-999,-999.0,-999.0,99,0.00,,,0.04,WSDL version 443,2013-12-04 07:59:00,
2013-12-04 03:04:00,37.0,36.8,29.94,North,-999,-999.0,-999.0,99,0.00,,,0.04,WSDL version 443,2013-12-04 08:04:00,
2013-12-04 03:09:00,37.0,36.8,29.94,North,-999,-999.0,-999.0,99,0.00,,,0.04,WSDL version 443,2013-12-04 08:09:00,
2013-12-04 03:14:00,37.1,36.8,29.94,North,-999,-999.0,-999.0,99,0.00,,,0.04,WSDL version 443,2013-12-04 08:14:00,
2013-12-04 03:19:00,37.1,36.5,29.94,North,-999,-999.0,-999.0,98,0.00,,,0.04,WSDL version 443,2013-12-04 08:19:00,
2013-12-04 03:24:00,37.0,36.5,29.94,North,-999,-999.0,-999.0,98,0.00,,,0.04,WSDL version 443,2013-12-04 08:24:00,
2013-12-04 03:29:00,37.0,36.5,29.94,North,-999,-999.0,-999.0,98,0.00,,,0.04,WSDL version 443,2013-12-04 08:29:00,
2013-12-04 03:34:00,37.0,36.5,29.94,North,-999,-999.0,-999.0,98,0.00,,,0.04,WSDL version 443,2013-12-04 08:34:00,
2013-12-04 03:39:00,37.0,36.2,29.94,North,-999,-999.0,-999.0,97,0.00,,,0.04,WSDL version 443,2013-12-04 08:39:00,
2013-12-04 03:44:00,37.1,36.2,29.94,North,-999,-999.0,-999.0,97,0.00,,,0.04,WSDL version 443,2013-12-04 08:44:00,
2013-12-04 03:49:00,37.0,36.2,29.94,North,-999,-999.0,-999.0,97,0.00,,,0.04,WSDL version 443,2013-12-04 08:49:00,
2013-12-04 03:54:00,37.0,36.0,29.94,North,-999,-999.0,-999.0,96,0.00,,,0.04,WSDL version 443,2013-12-04 08:54:00,
2013-12-04 03:59:00,37.0,35.9,29.94,North,-999,-999.0,-999.0,96,0.00,,,0.04,WSDL version 443,2013-12-04 08:59:00,
2013-12-04 04:04:00,37.1,35.9,29.94,North,-999,-999.0,-999.0,96,0.00,,,0.04,WSDL version 443,2013-12-04 09:04:00,
2013-12-04 04:09:00,37.2,36.1,29.94,North,-999,-999.0,-999.0,96,0.00,,,0.04,WSDL version 443,2013-12-04 09:09:00,
2013-12-04 04:14:00,37.3,36.2,29.94,North,-999,-999.0,-999.0,96,0.00,,,0.04,WSDL version 443,2013-12-04 09:14:00,
2013-12-04 04:19:00,37.5,36.3,29.94,North,-999,-999.0,-999.0,96,0.00,,,0.04,WSDL version 443,2013-12-04 09:19:00,
2013-12-04 04:24:00,37.6,36.4,29.94,North,-999,-999.0,-999.0,96,0.00,,,0.04,WSDL version 443,2013-12-04 09:24:00,
2013-12-04 04:29:00,37.6,36.5,29.94,North,-999,-999.0,-999.0,96,0.00,,,0.04,WSDL version 443,2013-12-04 09:29:00,
2013-12-04 04:34:00,37.8,36.6,29.94,North,-999,-999.0,-999.0,96,0.00,,,0.04,WSDL version 443,2013-12-04 09:34:00,
2013-12-04 04:39:00,37.8,36.4,29.94,North,-999,-999.0,-999.0,95,0.00,,,0.04,WSDL version 443,2013-12-04 09:39:00,
2013-12-04 04:44:00,37.6,36.2,29.94,North,-999,-999.0,-999.0,94,0.00,,,0.04,WSDL version 443,2013-12-04 09:44:00,
2013-12-04 04:49:00,37.6,36.1,29.94,North,-999,-999.0,-999.0,94,0.00,,,0.04,WSDL version 443,2013-12-04 09:49:00,
2013-12-04 04:54:00,37.6,36.1,29.97,North,-999,-999.0,-999.0,94,0.00,,,0.04,WSDL version 443,2013-12-04 09:54:00,
2013-12-04 04:59:00,37.7,36.3,29.97,North,-999,-999.0,-999.0,94,0.00,,,0.04,WSDL version 443,2013-12-04 09:59:00,
2013-12-04 05:04:00,37.8,36.4,29.97,North,-999,-999.0,-999.0,94,0.00,,,0.04,WSDL version 443,2013-12-04 10:04:00,
2013-12-04 05:09:00,37.9,36.5,29.97,North,-999,-999.0,-999.0,94,0.00,,,0.04,WSDL version 443,2013-12-04 10:09:00,
2013-12-04 05:14:00,37.9,36.5,29.97,North,-999,-999.0,-999.0,94,0.00,,,0.04,WSDL version 443,2013-12-04 10:14:00,
2013-12-04 05:19:00,37.8,36.3,29.97,North,-999,-999.0,-999.0,94,0.00,,,0.04,WSDL version 443,2013-12-04 10:19:00,
2013-12-04 05:24:00,37.7,36.1,29.94,North,-999,-999.0,-999.0,94,0.00,,,0.04,WSDL version 443,2013-12-04 10:24:00,
2013-12-04 05:29:00,37.6,35.9,29.94,North,-999,-999.0,-999.0,93,0.00,,,0.04,WSDL version 443,2013-12-04 10:29:00,
2013-12-04 05:34:00,37.6,35.8,29.94,North,-999,-999.0,-999.0,93,0.00,,,0.04,WSDL version 443,2013-12-04 10:34:00,
2013-12-04 05:39:00,37.6,35.6,29.91,North,-999,-999.0,-999.0,93,0.00,,,0.04,WSDL version 443,2013-12-04 10:39:00,
2013-12-04 05:44:00,37.6,35.5,29.91,North,-999,-999.0,-999.0,92,0.00,,,0.04,WSDL version 443,2013-12-04 10:44:00,
2013-12-04 05:49:00,37.6,35.5,29.91,North,-999,-999.0,-999.0,92,0.00,,,0.04,WSDL version 443,2013-12-04 10:49:00,
2013-12-04 05:54:00,37.6,35.5,29.91,North,-999,-999.0,-999.0,92,0.00,,,0.04,WSDL version 443,2013-12-04 10:54:00,
2013-12-04 05:59:00,37.4,35.4,29.91,North,-999,-999.0,-999.0,92,0.00,,,0.04,WSDL version 443,2013-12-04 10:59:00,
2013-12-04 06:04:00,37.4,35.3,29.91,North,-999,-999.0,-999.0,92,0.00,,,0.04,WSDL version 443,2013-12-04 11:04:00,
2013-12-04 06:09:00,37.3,35.1,29.91,North,-999,-999.0,-999.0,92,0.00,,,0.04,WSDL version 443,2013-12-04 11:09:00,
2013-12-04 06:14:00,37.3,34.9,29.91,North,-999,-999.0,-999.0,91,0.00,,,0.04,WSDL version 443,2013-12-04 11:14:00,
2013-12-04 06:19:00,37.0,34.6,29.91,North,-999,-999.0,-999.0,91,0.00,,,0.04,WSDL version 443,2013-12-04 11:19:00,
2013-12-04 06:24:00,36.8,34.2,29.94,North,-999,-999.0,-999.0,90,0.00,,,0.04,WSDL version 443,2013-12-04 11:24:00,
2013-12-04 06:29:00,36.7,34.0,29.94,North,-999,-999.0,-999.0,90,0.00,,,0.04,WSDL version 443,2013-12-04 11:29:00,
2013-12-04 06:34:00,36.7,34.0,29.94,North,-999,-999.0,-999.0,90,0.00,,,0.04,WSDL version 443,2013-12-04 11:34:00,
2013-12-04 06:39:00,36.7,34.1,29.91,North,-999,-999.0,-999.0,90,0.00,,,0.04,WSDL version 443,2013-12-04 11:39:00,
2013-12-04 06:44:00,36.8,34.2,29.91,North,-999,-999.0,-999.0,90,0.00,,,0.04,WSDL version 443,2013-12-04 11:44:00,
2013-12-04 06:49:00,36.6,34.0,29.91,North,-999,-999.0,-999.0,90,0.00,,,0.04,WSDL version 443,2013-12-04 11:49:00,
2013-12-04 06:54:00,36.7,34.0,29.91,North,-999,-999.0,-999.0,90,0.00,,,0.04,WSDL version 443,2013-12-04 11:54:00,
2013-12-04 06:59:00,36.5,33.9,29.91,ESE,113,2.0,2.0,90,0.00,,,0.04,WSDL version 443,2013-12-04 11:59:00,
2013-12-04 07:04:00,36.5,33.9,29.91,ESE,113,2.0,2.0,90,0.00,,,0.04,WSDL version 443,2013-12-04 12:04:00,
2013-12-04 07:09:00,36.5,33.9,29.94,ESE,113,2.0,2.0,90,0.00,,,0.04,WSDL version 443,2013-12-04 12:09:00,
2013-12-04 07:14:00,36.7,34.0,29.94,ESE,113,2.0,2.0,90,0.00,,,0.04,WSDL version 443,2013-12-04 12:14:00,
2013-12-04 07:19:00,36.7,34.3,29.94,North,-999,-999.0,-999.0,91,0.00,,,0.04,WSDL version 443,2013-12-04 12:19:00,
2013-12-04 07:24:00,37.0,34.6,29.94,North,-999,-999.0,-999.0,91,0.00,,,0.04,WSDL version 443,2013-12-04 12:24:00,
2013-12-04 07:29:00,37.1,35.0,29.94,North,-999,-999.0,-999.0,92,0.00,,,0.04,WSDL version 443,2013-12-04 12:29:00,
2013-12-04 07:34:00,37.1,35.0,29.94,North,-999,-999.0,-999.0,92,0.00,,,0.04,WSDL version 443,2013-12-04 12:34:00,
2013-12-04 07:39:00,37.2,35.2,29.91,North,-999,-999.0,-999.0,92,0.00,,,0.04,WSDL version 443,2013-12-04 12:39:00,
2013-12-04 07:44:00,37.0,34.9,29.91,North,-999,-999.0,-999.0,92,0.00,,,0.04,WSDL version 443,2013-12-04 12:44:00,
2013-12-04 07:49:00,36.7,34.6,29.91,North,-999,-999.0,-999.0,92,0.00,,,0.04,WSDL version 443,2013-12-04 12:49:00,
2013-12-04 07:54:00,36.7,34.3,29.91,North,-999,-999.0,-999.0,91,0.00,,,0.04,WSDL version 443,2013-12-04 12:54:00,
2013-12-04 07:59:00,36.9,34.6,29.91,North,-999,-999.0,-999.0,91,0.00,,,0.04,WSDL version 443,2013-12-04 12:59:00,
2013-12-04 08:04:00,37.0,34.9,29.91,North,-999,-999.0,-999.0,92,0.00,,,0.04,WSDL version 443,2013-12-04 13:04:00,
2013-12-04 08:09:00,36.9,34.5,29.94,North,-999,-999.0,-999.0,91,0.00,,,0.04,WSDL version 443,2013-12-04 13:09:00,
2013-12-04 08:14:00,37.0,34.9,29.94,North,-999,-999.0,-999.0,92,0.00,,,0.04,WSDL version 443,2013-12-04 13:14:00,
2013-12-04 08:19:00,37.4,35.4,29.94,North,-999,-999.0,-999.0,92,0.00,,,0.04,WSDL version 443,2013-12-04 13:19:00,
2013-12-04 08:24:00,37.7,35.8,29.94,North,-999,-999.0,-999.0,93,0.00,,,0.04,WSDL version 443,2013-12-04 13:24:00,
2013-12-04 08:29:00,37.9,36.2,29.94,North,-999,-999.0,-999.0,93,0.00,,,0.04,WSDL version 443,2013-12-04 13:29:00,
2013-12-04 08:34:00,38.1,36.5,29.94,North,-999,-999.0,-999.0,94,0.00,,,0.04,WSDL version 443,2013-12-04 13:34:00,
2013-12-04 08:39:00,38.3,36.9,29.94,North,-999,-999.0,-999.0,94,0.00,,,0.04,WSDL version 443,2013-12-04 13:39:00,
2013-12-04 08:44:00,38.5,37.1,29.94,North,-999,-999.0,-999.0,94,0.00,,,0.04,WSDL version 443,2013-12-04 13:44:00,
2013-12-04 08:49:00,38.7,37.4,29.94,North,-999,-999.0,-999.0,95,0.00,,,0.04,WSDL version 443,2013-12-04 13:49:00,
2013-12-04 08:54:00,39.0,37.8,29.94,North,-999,-999.0,-999.0,96,0.00,,,0.04,WSDL version 443,2013-12-04 13:54:00,
2013-12-04 08:59:00,39.3,38.1,29.94,SSE,158,4.7,4.7,96,0.00,,,0.04,WSDL version 443,2013-12-04 13:59:00,
2013-12-04 09:04:00,39.6,38.7,29.94,SSE,158,4.7,4.7,96,0.00,,,0.04,WSDL version 443,2013-12-04 14:04:00,
2013-12-04 09:09:00,39.8,39.0,29.91,SSE,158,4.7,4.7,97,0.00,,,0.04,WSDL version 443,2013-12-04 14:09:00,
2013-12-04 09:14:00,40.1,39.5,29.91,SSE,158,4.7,4.7,98,0.00,,,0.04,WSDL version 443,2013-12-04 14:14:00,
2013-12-04 09:19:00,40.4,39.8,29.91,North,-999,-999.0,-999.0,98,0.00,,,0.04,WSDL version 443,2013-12-04 14:19:00,
2013-12-04 09:24:00,40.6,40.2,29.94,North,-999,-999.0,-999.0,98,0.00,,,0.04,WSDL version 443,2013-12-04 14:24:00,
2013-12-04 09:29:00,40.9,40.6,29.94,North,-999,-999.0,-999.0,99,0.00,,,0.04,WSDL version 443,2013-12-04 14:29:00,
2013-12-04 09:34:00,41.0,40.7,29.94,North,-999,-999.0,-999.0,99,0.00,,,0.04,WSDL version 443,2013-12-04 14:34:00,
2013-12-04 09:39:00,41.1,40.8,29.94,North,-999,-999.0,-999.0,99,0.00,,,0.04,WSDL version 443,2013-12-04 14:39:00,
2013-12-04 09:44:00,41.2,40.9,29.94,North,-999,-999.0,-999.0,99,0.00,,,0.04,WSDL version 443,2013-12-04 14:44:00,
2013-12-04 09:49:00,41.5,41.2,29.94,SE,135,4.5,4.5,99,0.00,,,0.04,WSDL version 443,2013-12-04 14:49:00,
2013-12-04 09:54:00,41.8,41.5,29.91,SE,135,4.5,4.5,99,0.00,,,0.04,WSDL version 443,2013-12-04 14:54:00,
2013-12-04 09:59:00,42.0,41.8,29.91,SE,135,4.5,4.5,99,0.00,,,0.04,WSDL version 443,2013-12-04 14:59:00,
2013-12-04 10:04:00,42.4,42.1,29.91,SE,135,4.5,4.5,99,0.00,,,0.04,WSDL version 443,2013-12-04 15:04:00,
2013-12-04 10:09:00,42.7,42.5,29.91,North,-999,-999.0,-999.0,99,0.00,,,0.04,WSDL version 443,2013-12-04 15:09:00,
2013-12-04 10:14:00,42.9,42.6,29.91,North,-999,-999.0,-999.0,99,0.00,,,0.04,WSDL version 443,2013-12-04 15:14:00,
2013-12-04 10:19:00,43.2,42.9,29.91,North,-999,-999.0,-999.0,99,0.00,,,0.04,WSDL version 443,2013-12-04 15:19:00,
2013-12-04 10:24:00,43.5,42.9,29.91,North,-999,-999.0,-999.0,98,0.00,,,0.04,WSDL version 443,2013-12-04 15:24:00,
2013-12-04 10:29:00,43.7,42.9,29.91,North,-999,-999.0,-999.0,97,0.00,,,0.04,WSDL version 443,2013-12-04 15:29:00,
2013-12-04 10:34:00,44.0,42.9,29.91,North,-999,-999.0,-999.0,96,0.00,,,0.04,WSDL version 443,2013-12-04 15:34:00,
2013-12-04 10:39:00,44.1,42.6,29.91,North,-999,-999.0,-999.0,94,0.00,,,0.04,WSDL version 443,2013-12-04 15:39:00,
2013-12-04 10:44:00,44.2,42.0,29.91,North,-999,-999.0,-999.0,92,0.00,,,0.04,WSDL version 443,2013-12-04 15:44:00,
2013-12-04 10:49:00,44.5,41.5,29.91,North,-999,-999.0,-999.0,89,0.00,,,0.04,WSDL version 443,2013-12-04 15:49:00,
2013-12-04 10:54:00,44.8,41.2,29.88,North,-999,-999.0,-999.0,87,0.00,,,0.04,WSDL version 443,2013-12-04 15:54:00,
2013-12-04 10:59:00,45.3,41.5,29.88,North,-999,-999.0,-999.0,87,0.00,,,0.04,WSDL version 443,2013-12-04 15:59:00,
2013-12-04 11:04:00,45.6,41.7,29.88,North,-999,-999.0,-999.0,86,0.00,,,0.04,WSDL version 443,2013-12-04 16:04:00,
2013-12-04 11:09:00,45.8,41.3,29.91,North,-999,-999.0,-999.0,84,0.00,,,0.04,WSDL version 443,2013-12-04 16:09:00,
2013-12-04 11:14:00,46.1,41.1,29.91,North,-999,-999.0,-999.0,83,0.00,,,0.04,WSDL version 443,2013-12-04 16:14:00,
2013-12-04 11:19:00,46.6,40.9,29.91,North,-999,-999.0,-999.0,81,0.00,,,0.04,WSDL version 443,2013-12-04 16:19:00,
2013-12-04 11:24:00,46.9,40.6,29.91,North,-999,-999.0,-999.0,79,0.00,,,0.04,WSDL version 443,2013-12-04 16:24:00,
2013-12-04 11:29:00,47.2,40.3,29.91,North,-999,-999.0,-999.0,77,0.00,,,0.04,WSDL version 443,2013-12-04 16:29:00,
2013-12-04 11:34:00,47.4,40.2,29.91,SE,143,6.9,7.8,76,0.00,,,0.04,WSDL version 443,2013-12-04 16:34:00,
2013-12-04 11:39:00,47.8,40.2,29.91,SE,141,7.6,7.8,75,0.00,,,0.04,WSDL version 443,2013-12-04 16:39:00,
2013-12-04 11:44:00,48.2,40.1,29.91,SE,135,7.8,7.8,73,0.00,,,0.04,WSDL version 443,2013-12-04 16:44:00,
2013-12-04 11:49:00,48.8,39.9,29.91,SE,135,7.8,7.8,71,0.00,,,0.04,WSDL version 443,2013-12-04 16:49:00,
2013-12-04 11:54:00,49.3,39.6,29.88,SE,135,7.8,7.8,69,0.00,,,0.04,WSDL version 443,2013-12-04 16:54:00,
2013-12-04 11:59:00,49.7,39.4,29.88,SE,135,4.9,7.8,67,0.00,,,0.04,WSDL version 443,2013-12-04 16:59:00,
2013-12-04 12:04:00,50.0,38.8,29.88,SE,135,4.9,7.8,65,0.00,,,0.04,WSDL version 443,2013-12-04 17:04:00,
2013-12-04 12:14:00,50.0,38.7,29.88,SSE,158,6.9,7.8,65,0.00,,,0.04,WSDL version 443,2013-12-04 17:14:00,
2013-12-04 12:19:00,49.9,38.5,29.88,SSE,158,6.9,7.6,65,0.00,,,0.04,WSDL version 443,2013-12-04 17:19:00,
2013-12-04 12:29:00,50.0,38.3,29.88,North,-999,-999.0,-999.0,64,0.00,,,0.04,WSDL version 443,2013-12-04 17:29:00,
2013-12-04 12:34:00,50.0,38.4,29.88,North,-999,-999.0,-999.0,64,0.00,,,0.04,WSDL version 443,2013-12-04 17:34:00,
2013-12-04 12:39:00,50.1,39.0,29.85,North,-999,-999.0,-999.0,65,0.00,,,0.04,WSDL version 443,2013-12-04 17:39:00,
2013-12-04 12:44:00,50.2,39.4,29.85,North,-999,-999.0,-999.0,66,0.00,,,0.04,WSDL version 443,2013-12-04 17:44:00,
2013-12-04 12:49:00,50.1,38.7,29.85,North,-999,-999.0,-999.0,65,0.00,,,0.04,WSDL version 443,2013-12-04 17:49:00,
2013-12-04 12:54:00,50.3,39.0,29.83,North,-999,-999.0,-999.0,65,0.00,,,0.04,WSDL version 443,2013-12-04 17:54:00,
2013-12-04 12:59:00,50.8,39.4,29.83,North,-999,-999.0,-999.0,65,0.00,,,0.04,WSDL version 443,2013-12-04 17:59:00,
2013-12-04 13:04:00,51.1,39.2,29.83,North,-999,-999.0,-999.0,64,0.00,,,0.04,WSDL version 443,2013-12-04 18:04:00,
2013-12-04 13:09:00,51.1,38.9,29.85,North,-999,-999.0,-999.0,63,0.00,,,0.04,WSDL version 443,2013-12-04 18:09:00,
2013-12-04 13:14:00,51.1,38.5,29.85,North,-999,-999.0,-999.0,62,0.00,,,0.04,WSDL version 443,2013-12-04 18:14:00,
2013-12-04 13:19:00,51.2,38.6,29.85,North,-999,-999.0,-999.0,62,0.00,,,0.04,WSDL version 443,2013-12-04 18:19:00,
2013-12-04 13:24:00,51.4,39.3,29.85,North,-999,-999.0,-999.0,63,0.00,,,0.04,WSDL version 443,2013-12-04 18:24:00,
2013-12-04 13:30:00,51.7,39.6,29.85,North,-999,-999.0,-999.0,63,0.00,,,0.04,WSDL version 443,2013-12-04 18:30:00,
2013-12-04 13:35:00,51.8,38.9,29.85,North,-999,-999.0,-999.0,61,0.00,,,0.04,WSDL version 443,2013-12-04 18:35:00,
2013-12-04 13:40:00,51.6,38.2,29.85,North,-999,-999.0,-999.0,60,0.00,,,0.04,WSDL version 443,2013-12-04 18:40:00,
2013-12-04 13:45:00,51.4,38.0,29.85,North,-999,-999.0,-999.0,60,0.00,,,0.04,WSDL version 443,2013-12-04 18:45:00,
2013-12-04 13:50:00,51.4,38.7,29.83,North,-999,-999.0,-999.0,62,0.00,,,0.04,WSDL version 443,2013-12-04 18:50:00,
2013-12-04 13:55:00,51.3,38.6,29.83,North,-999,-999.0,-999.0,62,0.00,,,0.04,WSDL version 443,2013-12-04 18:55:00,
2013-12-04 14:00:00,51.3,38.7,29.83,North,-999,-999.0,-999.0,62,0.00,,,0.04,WSDL version 443,2013-12-04 19:00:00,
2013-12-04 14:05:00,51.3,38.8,29.83,North,-999,-999.0,-999.0,62,0.00,,,0.04,WSDL version 443,2013-12-04 19:05:00,
2013-12-04 14:10:00,51.4,39.3,29.83,North,-999,-999.0,-999.0,63,0.00,,,0.04,WSDL version 443,2013-12-04 19:10:00,
2013-12-04 14:15:00,51.6,39.5,29.83,North,-999,-999.0,-999.0,63,0.00,,,0.04,WSDL version 443,2013-12-04 19:15:00,
2013-12-04 14:20:00,51.7,39.4,29.83,North,-999,-999.0,-999.0,63,0.00,,,0.04,WSDL version 443,2013-12-04 19:20:00,
2013-12-04 14:27:00,51.8,39.6,29.83,North,-999,-999.0,-999.0,63,0.00,,,0.04,WSDL version 443,2013-12-04 19:27:00,
2013-12-04 14:32:00,51.7,39.5,29.83,North,-999,-999.0,-999.0,63,0.00,,,0.04,WSDL version 443,2013-12-04 19:32:00,
2013-12-04 14:38:00,51.5,39.8,29.83,SSE,158,8.1,8.7,64,0.00,,,0.04,WSDL version 443,2013-12-04 19:38:00,
2013-12-04 14:43:00,51.4,39.9,29.83,SE,135,7.2,8.7,65,0.00,,,0.04,WSDL version 443,2013-12-04 19:43:00,
2013-12-04 14:48:00,51.3,39.9,29.83,SSE,158,7.6,8.7,65,0.00,,,0.04,WSDL version 443,2013-12-04 19:48:00,
2013-12-04 14:53:00,51.3,39.9,29.80,SSE,158,7.6,8.5,65,0.00,,,0.04,WSDL version 443,2013-12-04 19:53:00,
2013-12-04 14:58:00,51.3,40.0,29.80,SSE,158,7.6,7.8,65,0.00,,,0.04,WSDL version 443,2013-12-04 19:58:00,
2013-12-04 15:03:00,51.2,40.3,29.80,North,0,0.0,7.8,66,0.00,,,0.04,WSDL version 443,2013-12-04 20:03:00,
2013-12-04 15:08:00,51.1,40.1,29.80,North,-999,-999.0,-999.0,66,0.00,,,0.04,WSDL version 443,2013-12-04 20:08:00,
2013-12-04 15:13:00,51.1,39.8,29.80,North,-999,-999.0,-999.0,65,0.00,,,0.04,WSDL version 443,2013-12-04 20:13:00,
2013-12-04 15:18:00,51.1,39.9,29.80,North,-999,-999.0,-999.0,66,0.00,,,0.04,WSDL version 443,2013-12-04 20:18:00,
2013-12-04 15:23:00,51.1,39.7,29.80,North,-999,-999.0,-999.0,65,0.00,,,0.04,WSDL version 443,2013-12-04 20:23:00,
2013-12-04 15:28:00,51.1,39.7,29.80,North,-999,-999.0,-999.0,65,0.00,,,0.04,WSDL version 443,2013-12-04 20:28:00,
2013-12-04 15:33:00,51.1,39.7,29.80,North,-999,-999.0,-999.0,65,0.00,,,0.04,WSDL version 443,2013-12-04 20:33:00,
2013-12-04 15:38:00,51.1,39.7,29.80,North,-999,-999.0,-999.0,65,0.00,,,0.04,WSDL version 443,2013-12-04 20:38:00,
2013-12-04 15:43:00,51.0,39.6,29.80,North,-999,-999.0,-999.0,65,0.00,,,0.04,WSDL version 443,2013-12-04 20:43:00,
2013-12-04 15:48:00,50.9,39.6,29.80,North,-999,-999.0,-999.0,65,0.00,,,0.04,WSDL version 443,2013-12-04 20:48:00,
2013-12-04 15:53:00,50.9,39.8,29.80,North,-999,-999.0,-999.0,66,0.00,,,0.04,WSDL version 443,2013-12-04 20:53:00,
2013-12-04 15:58:00,50.9,39.6,29.80,SE,135,6.7,6.9,65,0.00,,,0.04,WSDL version 443,2013-12-04 20:58:00,
2013-12-04 16:03:00,50.7,39.4,29.80,SE,143,6.6,7.6,65,0.00,,,0.04,WSDL version 443,2013-12-04 21:03:00,
2013-12-04 16:08:00,50.6,39.6,29.80,SE,135,6.9,8.9,66,0.00,,,0.04,WSDL version 443,2013-12-04 21:08:00,
2013-12-04 16:13:00,50.4,39.5,29.80,SSE,150,4.3,8.9,66,0.00,,,0.04,WSDL version 443,2013-12-04 21:13:00,
2013-12-04 16:18:00,50.4,39.8,29.80,ESE,113,6.5,7.4,67,0.00,,,0.04,WSDL version 443,2013-12-04 21:18:00,
2013-12-04 16:23:00,50.3,40.0,29.77,ESE,113,6.5,8.7,68,0.00,,,0.04,WSDL version 443,2013-12-04 21:23:00,
2013-12-04 16:28:00,50.2,40.0,29.77,ESE,113,6.3,8.7,68,0.00,,,0.04,WSDL version 443,2013-12-04 21:28:00,
2013-12-04 16:33:00,50.2,40.4,29.77,SE,135,6.4,8.7,69,0.00,,,0.04,WSDL version 443,2013-12-04 21:33:00,
2013-12-04 16:38:00,50.2,40.8,29.77,ESE,122,7.2,8.5,70,0.00,,,0.04,WSDL version 443,2013-12-04 21:38:00,
2013-12-04 16:43:00,50.4,41.0,29.77,SE,124,6.5,8.5,70,0.00,,,0.04,WSDL version 443,2013-12-04 21:43:00,
2013-12-04 16:48:00,50.4,41.0,29.77,SE,135,7.2,7.8,70,0.00,,,0.04,WSDL version 443,2013-12-04 21:48:00,
2013-12-04 16:53:00,50.4,41.0,29.77,SE,131,6.7,8.7,70,0.00,,,0.04,WSDL version 443,2013-12-04 21:53:00,
2013-12-04 16:58:00,50.4,41.2,29.77,SE,135,5.8,8.7,71,0.00,,,0.04,WSDL version 443,2013-12-04 21:58:00,
2013-12-04 17:03:00,50.2,40.8,29.77,ESE,113,4.4,7.4,70,0.00,,,0.04,WSDL version 443,2013-12-04 22:03:00,
2013-12-04 17:08:00,50.0,40.6,29.74,ESE,113,5.4,7.4,70,0.00,,,0.04,WSDL version 443,2013-12-04 22:08:00,
2013-12-04 17:13:00,49.8,40.7,29.74,ESE,113,6.0,8.5,71,0.00,,,0.04,WSDL version 443,2013-12-04 22:13:00,
2013-12-04 17:18:00,49.8,40.7,29.74,ESE,113,6.0,8.5,71,0.00,,,0.04,WSDL version 443,2013-12-04 22:18:00,
2013-12-04 17:23:00,49.8,41.0,29.74,ESE,113,6.0,7.8,72,0.00,,,0.04,WSDL version 443,2013-12-04 22:23:00,
2013-12-04 17:28:00,49.8,41.4,29.74,ESE,113,6.0,7.8,73,0.00,,,0.04,WSDL version 443,2013-12-04 22:28:00,
2013-12-04 17:33:00,49.8,41.5,29.74,North,-999,-999.0,-999.0,73,0.00,,,0.04,WSDL version 443,2013-12-04 22:33:00,
2013-12-04 17:38:00,49.9,41.6,29.74,North,-999,-999.0,-999.0,73,0.00,,,0.04,WSDL version 443,2013-12-04 22:38:00,
2013-12-04 17:43:00,50.0,41.7,29.74,North,-999,-999.0,-999.0,73,0.00,,,0.04,WSDL version 443,2013-12-04 22:43:00,
2013-12-04 17:48:00,50.1,41.8,29.74,North,-999,-999.0,-999.0,73,0.00,,,0.04,WSDL version 443,2013-12-04 22:48:00,
2013-12-04 17:53:00,50.2,41.9,29.74,North,-999,-999.0,-999.0,73,0.00,,,0.04,WSDL version 443,2013-12-04 22:53:00,
2013-12-04 17:58:00,50.4,42.3,29.74,North,-999,-999.0,-999.0,74,0.00,,,0.04,WSDL version 443,2013-12-04 22:58:00,
2013-12-04 18:03:00,50.4,42.7,29.74,North,-999,-999.0,-999.0,75,0.00,,,0.04,WSDL version 443,2013-12-04 23:03:00,
2013-12-04 18:08:00,50.5,43.7,29.74,North,-999,-999.0,-999.0,77,0.00,,,0.04,WSDL version 443,2013-12-04 23:08:00,
2013-12-04 18:13:00,50.3,44.0,29.74,North,-999,-999.0,-999.0,79,0.00,,,0.04,WSDL version 443,2013-12-04 23:13:00,
2013-12-04 18:18:00,50.3,44.3,29.74,North,-999,-999.0,-999.0,80,0.00,,,0.04,WSDL version 443,2013-12-04 23:18:00,
2013-12-04 18:23:00,50.4,44.4,29.74,North,-999,-999.0,-999.0,80,0.00,,,0.04,WSDL version 443,2013-12-04 23:23:00,
2013-12-04 18:28:00,50.4,44.1,29.74,North,-999,-999.0,-999.0,79,0.00,,,0.04,WSDL version 443,2013-12-04 23:28:00,
2013-12-04 18:38:00,50.8,44.8,29.71,North,-999,-999.0,-999.0,80,0.00,,,0.04,WSDL version 443,2013-12-04 23:38:00,
2013-12-04 18:43:00,51.0,44.6,29.71,North,-999,-999.0,-999.0,78,0.00,,,0.04,WSDL version 443,2013-12-04 23:43:00,
2013-12-04 18:48:00,51.1,44.6,29.71,SSE,158,11.9,12.5,78,0.04,,,0.08,WSDL version 443,2013-12-04 23:48:00,
2013-12-04 18:53:00,51.1,45.1,29.71,SSE,158,11.9,12.5,80,0.04,,,0.08,WSDL version 443,2013-12-04 23:53:00,
2013-12-04 18:58:00,51.1,45.5,29.71,SSE,158,11.9,12.5,81,0.04,,,0.08,WSDL version 443,2013-12-04 23:58:00,
2013-12-04 19:03:00,51.0,45.7,29.71,North,-999,-999.0,-999.0,82,0.04,,,0.08,WSDL version 443,2013-12-05 00:03:00,
2013-12-04 19:08:00,51.0,46.0,29.71,North,-999,-999.0,-999.0,83,0.04,,,0.08,WSDL version 443,2013-12-05 00:08:00,
2013-12-04 19:13:00,51.1,46.4,29.71,South,180,11.9,13.2,84,0.04,,,0.08,WSDL version 443,2013-12-05 00:13:00,
2013-12-04 19:18:00,51.3,46.7,29.71,South,180,11.9,13.2,84,0.04,,,0.08,WSDL version 443,2013-12-05 00:18:00,
2013-12-04 19:23:00,51.2,46.7,29.68,South,180,11.9,13.2,84,0.04,,,0.08,WSDL version 443,2013-12-05 00:23:00,
2013-12-04 19:28:00,51.3,46.7,29.68,SSE,158,9.6,15.7,84,0.04,,,0.08,WSDL version 443,2013-12-05 00:28:00,
2013-12-04 19:33:00,51.5,47.0,29.68,SSE,158,9.6,15.7,84,0.04,,,0.08,WSDL version 443,2013-12-05 00:33:00,
2013-12-04 19:38:00,51.4,46.7,29.68,SSE,158,9.6,15.7,84,0.04,,,0.08,WSDL version 443,2013-12-05 00:38:00,
2013-12-04 19:43:00,51.5,47.0,29.68,SSE,158,13.2,16.3,84,0.04,,,0.08,WSDL version 443,2013-12-05 00:43:00,
2013-12-04 19:48:00,51.7,47.1,29.68,SSE,158,14.4,16.3,84,0.00,,,0.08,WSDL version 443,2013-12-05 00:48:00,
2013-12-04 19:53:00,51.9,47.1,29.68,SSE,165,13.9,16.3,83,0.00,,,0.08,WSDL version 443,2013-12-05 00:53:00,
2013-12-04 19:58:00,52.3,47.1,29.68,South,173,13.6,15.4,82,0.00,,,0.08,WSDL version 443,2013-12-05 00:58:00,
2013-12-04 20:03:00,52.5,47.0,29.68,SSE,158,14.8,15.4,81,0.00,,,0.08,WSDL version 443,2013-12-05 01:03:00,
2013-12-04 20:08:00,52.8,47.1,29.65,South,180,14.3,15.4,81,0.00,,,0.08,WSDL version 443,2013-12-05 01:08:00,
2013-12-04 20:13:00,53.0,46.9,29.65,SSE,165,15.0,22.8,80,0.00,,,0.08,WSDL version 443,2013-12-05 01:13:00,
2013-12-04 20:18:00,53.0,46.7,29.65,SSE,158,13.9,22.8,79,0.00,,,0.08,WSDL version 443,2013-12-05 01:18:00,
2013-12-04 20:23:00,53.1,46.6,29.68,South,169,12.5,17.9,78,0.00,,,0.08,WSDL version 443,2013-12-05 01:23:00,
2013-12-04 20:28:00,53.2,46.5,29.68,SSE,158,11.9,17.9,78,0.00,,,0.08,WSDL version 443,2013-12-05 01:28:00,
2013-12-04 20:33:00,53.5,46.6,29.68,SSE,163,11.9,12.8,78,0.00,,,0.08,WSDL version 443,2013-12-05 01:33:00,
2013-12-04 20:38:00,53.6,46.3,29.68,SSW,208,11.8,13.2,76,0.00,,,0.08,WSDL version 443,2013-12-05 01:38:00,
2013-12-04 20:43:00,53.6,46.0,29.68,South,176,14.0,19.9,75,0.00,,,0.08,WSDL version 443,2013-12-05 01:43:00,
2013-12-04 20:48:00,53.6,45.9,29.68,SSE,158,14.5,19.9,75,0.00,,,0.08,WSDL version 443,2013-12-05 01:48:00,
2013-12-04 20:53:00,53.6,45.8,29.68,South,173,12.3,17.4,75,0.00,,,0.08,WSDL version 443,2013-12-05 01:53:00,
2013-12-04 20:58:00,53.8,45.7,29.68,South,188,12.1,13.0,74,0.00,,,0.08,WSDL version 443,2013-12-05 01:58:00,
2013-12-04 21:03:00,53.8,45.7,29.68,South,180,12.2,15.4,74,0.00,,,0.08,WSDL version 443,2013-12-05 02:03:00,
2013-12-04 21:08:00,53.8,45.7,29.68,South,180,12.3,15.4,74,0.00,,,0.08,WSDL version 443,2013-12-05 02:08:00,
2013-12-04 21:13:00,53.8,45.7,29.68,South,180,12.3,15.4,74,0.00,,,0.08,WSDL version 443,2013-12-05 02:13:00,
2013-12-04 21:18:00,53.8,45.7,29.68,South,180,12.3,15.4,74,0.00,,,0.08,WSDL version 443,2013-12-05 02:18:00,
2013-12-04 21:23:00,53.8,45.7,29.68,North,-999,-999.0,-999.0,74,0.00,,,0.08,WSDL version 443,2013-12-05 02:23:00,
2013-12-04 21:28:00,53.8,45.7,29.68,South,180,10.5,13.2,74,0.00,,,0.08,WSDL version 443,2013-12-05 02:28:00,
2013-12-04 21:33:00,53.8,45.7,29.68,South,191,11.4,13.2,74,0.00,,,0.08,WSDL version 443,2013-12-05 02:33:00,
2013-12-04 21:38:00,53.8,45.7,29.65,South,180,12.6,14.5,74,0.00,,,0.08,WSDL version 443,2013-12-05 02:38:00,
2013-12-04 21:43:00,53.9,45.8,29.65,SSW,203,13.4,16.3,74,0.00,,,0.08,WSDL version 443,2013-12-05 02:43:00,
2013-12-04 21:48:00,54.0,45.9,29.65,South,173,12.4,17.7,74,0.00,,,0.08,WSDL version 443,2013-12-05 02:48:00,
2013-12-04 21:58:00,54.1,46.0,29.65,South,173,12.5,16.1,74,0.00,,,0.08,WSDL version 443,2013-12-05 02:58:00,
2013-12-04 22:03:00,54.1,46.3,29.65,SSW,195,12.3,15.9,75,0.00,,,0.08,WSDL version 443,2013-12-05 03:03:00,
2013-12-04 22:08:00,54.3,46.5,29.65,South,174,13.5,19.7,75,0.00,,,0.08,WSDL version 443,2013-12-05 03:08:00,
2013-12-04 22:13:00,54.4,46.3,29.65,South,170,12.4,19.7,74,0.00,,,0.08,WSDL version 443,2013-12-05 03:13:00,
2013-12-04 22:18:00,54.4,46.3,29.65,SSE,166,13.0,17.9,74,0.00,,,0.08,WSDL version 443,2013-12-05 03:18:00,
2013-12-04 22:23:00,54.5,46.4,29.62,South,169,12.8,17.9,74,0.00,,,0.08,WSDL version 443,2013-12-05 03:23:00,
2013-12-04 22:28:00,54.5,46.4,29.62,South,180,12.3,17.9,74,0.00,,,0.08,WSDL version 443,2013-12-05 03:28:00,
2013-12-04 22:33:00,54.6,46.7,29.62,South,173,13.1,19.0,75,0.00,,,0.08,WSDL version 443,2013-12-05 03:33:00,
2013-12-04 22:38:00,54.8,46.9,29.62,South,180,13.3,19.2,75,0.00,,,0.08,WSDL version 443,2013-12-05 03:38:00,
2013-12-04 22:43:00,54.9,46.9,29.62,South,174,12.6,19.2,74,0.00,,,0.08,WSDL version 443,2013-12-05 03:43:00,
2013-12-04 22:48:00,55.0,47.3,29.62,SSW,194,10.5,17.7,75,0.00,,,0.08,WSDL version 443,2013-12-05 03:48:00,
2013-12-04 22:53:00,55.2,47.4,29.62,South,176,10.8,17.4,75,0.00,,,0.08,WSDL version 443,2013-12-05 03:53:00,
2013-12-04 22:58:00,55.5,47.3,29.62,South,188,13.0,17.7,74,0.00,,,0.08,WSDL version 443,2013-12-05 03:58:00,
2013-12-04 23:03:00,55.7,47.6,29.62,SSW,198,12.5,17.7,74,0.00,,,0.08,WSDL version 443,2013-12-05 04:03:00,
2013-12-04 23:08:00,56.0,47.8,29.62,SSW,200,13.3,20.4,74,0.00,,,0.08,WSDL version 443,2013-12-05 04:08:00,
2013-12-04 23:13:00,56.0,47.5,29.62,South,180,13.9,20.4,73,0.00,,,0.08,WSDL version 443,2013-12-05 04:13:00,
2013-12-04 23:18:00,55.9,47.4,29.62,SSW,198,10.7,17.4,73,0.00,,,0.08,WSDL version 443,2013-12-05 04:18:00,
2013-12-04 23:23:00,56.1,47.6,29.62,South,180,11.8,14.3,73,0.00,,,0.08,WSDL version 443,2013-12-05 04:23:00,
2013-12-04 23:28:00,56.2,47.7,29.62,SSW,203,9.8,13.0,73,0.00,,,0.08,WSDL version 443,2013-12-05 04:28:00,
2013-12-04 23:33:00,56.4,47.9,29.62,South,190,13.6,17.0,73,0.00,,,0.08,WSDL version 443,2013-12-05 04:33:00,
2013-12-04 23:38:00,56.7,47.9,29.62,SSW,199,9.9,17.2,73,0.00,,,0.08,WSDL version 443,2013-12-05 04:38:00,
2013-12-04 23:43:00,56.8,48.0,29.62,SSW,199,9.2,17.2,72,0.00,,,0.08,WSDL version 443,2013-12-05 04:43:00,
2013-12-04 23:48:00,56.9,48.1,29.62,SSW,195,9.5,14.1,72,0.00,,,0.08,WSDL version 443,2013-12-05 04:48:00,
2013-12-04 23:53:00,57.1,48.1,29.62,SSW,208,8.7,12.8,72,0.00,,,0.08,WSDL version 443,2013-12-05 04:53:00,